Latest Weather Observations for Kununurra Airport

IDD60801

Issued at 1:01 pm CST Wednesday 22 February 2017 (issued every 30 minutes, with the page automatically refreshed every 10 minutes)

About weather observations | Map of weather stations | Latest weather observations for NT | Other Formats
Station Details ID: 002056 Name: KUNUNURRA AERO Lat: -15.78 Lon: 128.71 Height: 44.0 m
Data from the previous 72 hours. | See also: Recent months at Kununurra Airport
Date/Time
CST
Temp
°C
App
Temp
°C
Dew
Point
°C
Rel
Hum
%
Delta-T
°C
Wind Press
QNH
hPa
Press
MSL
hPa
Rain since
9am
mm
Dir  Spd
km/h
Gust
km/h
Spd
kts
Gust
kts
22/01:00pm 35.3 36.2 14.0 28 13.1 SW 2 11 1 6 1010.5 1010.2 0.0
22/12:58pm 35.6 36.6 14.3 28 13.2 WSW 2 6 1 3 1010.5 1010.2 0.0
22/12:30pm 34.5 35.3 17.3 36 11.1 SSW 9 15 5 8 1011.0 1010.7 0.0
22/12:00pm 34.1 34.5 17.3 36 10.8 SSW 11 15 6 8 1011.4 1011.1 0.0
22/11:30am 33.7 35.5 18.2 39 10.1 WSW 6 11 3 6 1011.7 1011.4 0.0
22/11:00am 32.4 33.9 18.9 44 8.8 WSW 9 13 5 7 1011.9 1011.6 0.0
22/10:41am 32.0 33.8 20.3 50 7.8 SW 11 15 6 8 1012.1 1011.8 0.0
22/10:30am 31.6 33.8 20.5 51 7.4 SW 9 13 5 7 1012.2 1011.9 0.0
22/10:00am 30.6 33.5 19.9 52 7.1 SSW 4 7 2 4 1012.4 1012.1 0.0
22/09:30am 29.1 30.9 18.8 53 6.7 SSW 7 11 4 6 1012.3 1012.0 0.0
22/09:12am 27.9 30.1 19.7 61 5.3 SSW 7 9 4 5 1012.3 1012.0 0.0
22/09:00am 27.7 31.5 21.0 67 4.4 E 2 7 1 4 1012.2 1011.9 0.0
22/08:47am 26.5 30.9 21.3 73 3.5 CALM 0 2 0 1 1012.1 1011.8 0.0
22/08:33am 25.3 29.0 21.4 79 2.6 NNE 4 6 2 3 1012.0 1011.7 0.0
22/08:30am 25.3 29.4 22.2 83 2.1 NNE 4 6 2 3 1012.0 1011.7 0.0
22/08:21am 25.0 28.7 22.3 85 1.8 NE 6 7 3 4 1012.0 1011.7 0.0
22/08:00am 23.9 28.4 22.2 90 1.1 N 2 7 1 4 1011.6 1011.3 0.0
22/07:47am 23.1 27.9 22.1 94 0.7 CALM 0 2 0 1 1011.5 1011.2 0.0
22/07:30am 21.2 24.0 20.4 95 0.5 N 6 11 3 6 1011.3 1011.0 0.0
22/07:27am 21.0 24.1 20.2 95 0.5 N 4 9 2 5 1011.4 1011.1 0.0
22/07:12am 20.4 22.8 19.6 95 0.5 N 6 7 3 4 1011.3 1011.0 0.0
22/07:00am 20.2 23.6 19.4 95 0.5 CALM 0 0 0 0 1011.1 1010.8 0.0
22/06:43am 20.3 23.7 19.3 94 0.6 CALM 0 0 0 0 1011.0 1010.7 0.0
22/06:30am 20.4 23.5 19.4 94 0.6 ESE 2 6 1 3 1011.0 1010.7 0.0
22/06:00am 21.3 25.3 20.5 95 0.5 CALM 0 0 0 0 1010.8 1010.5 0.0
22/05:30am 21.2 24.9 20.0 93 0.8 CALM 0 0 0 0 1010.7 1010.4 0.0
22/05:00am 21.4 24.2 20.4 94 0.6 SSW 6 7 3 4 1010.3 1010.0 0.0
22/04:30am 21.5 24.1 20.1 92 0.9 ESE 6 7 3 4 1010.0 1009.7 0.0
22/04:26am 21.9 24.8 20.7 93 0.8 ESE 6 7 3 4 1010.0 1009.7 0.0
22/04:01am 21.5 24.1 20.1 92 0.9 E 6 9 3 5 1010.0 1009.7 0.0
22/04:00am 21.3 23.6 19.9 92 0.9 E 7 9 4 5 1010.0 1009.7 0.0
22/03:31am 21.1 24.6 19.6 91 1.0 CALM 0 0 0 0 1009.9 1009.6 0.0
22/03:30am 21.1 24.6 19.6 91 1.0 CALM 0 0 0 0 1009.9 1009.6 0.0
22/03:12am 22.1 25.4 20.0 88 1.4 SSW 2 7 1 4 1009.9 1009.6 0.0
22/03:08am 21.9 25.2 20.0 89 1.2 SSW 2 6 1 3 1009.9 1009.6 0.0
22/03:00am 21.8 24.3 19.9 89 1.2 SSW 6 7 3 4 1009.9 1009.6 0.0
22/02:30am 22.0 25.6 19.7 87 1.5 CALM 0 0 0 0 1009.8 1009.5 0.0
22/02:29am 22.0 25.5 19.5 86 1.6 CALM 0 0 0 0 1009.8 1009.5 0.0
22/02:27am 22.2 25.8 19.7 86 1.6 CALM 0 0 0 0 1009.9 1009.6 0.0
22/02:03am 22.5 25.0 19.9 85 1.7 WSW 6 7 3 4 1010.1 1009.8 0.0
22/02:00am 22.1 24.7 20.0 88 1.4 W 6 7 3 4 1010.1 1009.8 0.0
22/01:30am 22.7 24.9 19.7 83 1.9 N 7 9 4 5 1010.3 1010.0 0.0
22/01:03am 22.6 24.9 19.9 85 1.7 NNE 7 9 4 5 1010.5 1010.2 0.0
22/01:00am 23.3 25.9 20.4 84 1.9 NE 7 9 4 5 1010.6 1010.3 0.0
22/12:44am 22.9 25.1 21.2 90 1.1 E 11 19 6 10 1010.7 1010.4 0.0
22/12:30am 23.4 26.5 21.1 87 1.5 SSE 6 7 3 4 1010.6 1010.3 0.0
22/12:21am 24.0 27.5 21.9 88 1.4 SE 6 7 3 4 1010.7 1010.4 0.0
22/12:08am 24.0 27.6 22.1 89 1.3 ESE 6 11 3 6 1010.7 1010.4 0.0
22/12:02am 23.6 26.8 21.7 89 1.3 SSE 7 11 4 6 1010.9 1010.6 0.0
22/12:00am 23.5 26.8 21.4 88 1.4 SSE 6 11 3 6 1010.9 1010.6 0.0
 
Date/Time
CST
Temp
°C
App
Temp
°C
Dew
Point
°C
Rel
Hum
%
Delta-T
°C
Wind Press
QNH
hPa
Press
MSL
hPa
Rain since
9am
mm
Dir  Spd
km/h
Gust
km/h
Spd
kts
Gust
kts
21/11:37pm 23.7 28.0 21.2 86 1.6 CALM 0 0 0 0 1010.9 1010.6 0.0
21/11:30pm 24.4 28.9 21.5 84 1.9 CALM 0 0 0 0 1011.0 1010.7 0.0
21/11:18pm 24.0 28.6 21.7 87 1.5 CALM 0 0 0 0 1011.0 1010.7 0.0
21/11:06pm 24.3 28.8 21.6 85 1.8 CALM 0 0 0 0 1011.1 1010.8 0.0
21/11:00pm 24.1 28.6 21.6 86 1.7 CALM 0 0 0 0 1011.1 1010.8 0.0
21/10:55pm 24.1 28.6 21.6 86 1.7 CALM 0 4 0 2 1011.2 1010.9 0.0
21/10:30pm 24.2 27.3 21.5 85 1.8 NNE 7 9 4 5 1011.0 1010.7 0.0
21/10:28pm 24.2 27.3 21.5 85 1.8 NNE 7 9 4 5 1011.0 1010.7 0.0
21/10:00pm 25.1 28.3 19.7 72 3.5 SE 2 6 1 3 1010.8 1010.5 0.0
21/09:40pm 25.6 29.1 20.4 73 3.4 SE 2 6 1 3 1010.6 1010.3 0.0
21/09:35pm 25.6 30.1 21.5 78 2.7 CALM 0 2 0 1 1010.6 1010.3 0.0
21/09:30pm 25.6 30.6 22.5 83 2.1 CALM 0 0 0 0 1010.6 1010.3 0.0
21/09:25pm 25.6 30.1 21.5 78 2.7 CALM 0 0 0 0 1010.5 1010.2 0.0
21/09:00pm 26.4 30.8 21.4 74 3.3 CALM 0 0 0 0 1010.3 1010.0 0.0
21/08:30pm 26.6 31.0 21.4 73 3.5 CALM 0 0 0 0 1010.0 1009.7 0.0
21/08:00pm 28.6 32.9 21.1 64 5.0 CALM 0 0 0 0 1009.7 1009.4 0.0
21/07:30pm 30.5 32.2 18.6 49 7.7 SE 7 9 4 5 1009.4 1009.1 0.0
21/07:00pm 32.5 32.5 15.1 35 10.8 SE 9 11 5 6 1009.0 1008.7 0.0
21/06:30pm 34.0 33.9 14.0 30 12.3 SSE 7 11 4 6 1008.8 1008.5 0.0
21/06:00pm 34.0 32.7 12.4 27 12.9 ESE 11 13 6 7 1008.6 1008.3 0.0
21/05:30pm 34.6 33.6 13.4 28 12.9 ESE 11 13 6 7 1008.5 1008.2 0.0
21/05:00pm 34.8 33.3 11.9 25 13.6 ESE 11 15 6 8 1008.5 1008.2 0.0
21/04:30pm 35.0 33.7 13.8 28 13.0 SE 13 17 7 9 1008.7 1008.4 0.0
21/04:00pm 35.3 35.1 14.6 29 12.8 SSE 9 15 5 8 1008.9 1008.6 0.0
21/03:30pm 35.0 34.3 14.3 29 12.8 SE 11 19 6 10 1009.0 1008.7 0.0
21/03:00pm 34.9 33.8 14.2 28 12.8 SE 13 19 7 10 1009.3 1009.0 0.0
21/02:30pm 35.0 34.1 16.8 34 11.7 SE 17 22 9 12 1009.7 1009.4 0.0
21/02:00pm 34.7 34.4 16.5 33 11.6 SSE 13 22 7 12 1010.1 1009.8 0.0
21/01:30pm 34.8 33.9 13.6 28 13.0 SSE 11 17 6 9 1010.7 1010.4 0.0
21/01:00pm 34.4 34.2 15.8 33 11.7 SE 11 22 6 12 1011.3 1011.0 0.0
21/12:30pm 34.2 36.7 20.2 43 9.4 S 7 11 4 6 1011.7 1011.4 0.0
21/12:00pm 33.5 36.2 20.6 46 8.6 W 7 13 4 7 1012.0 1011.7 0.0
21/11:30am 32.7 34.6 20.6 49 8.1 W 11 17 6 9 1012.4 1012.1 0.0
21/11:00am 32.0 34.1 20.9 52 7.4 W 11 17 6 9 1012.6 1012.3 0.0
21/10:30am 31.3 33.8 21.8 57 6.4 W 11 17 6 9 1012.9 1012.6 0.0
21/10:00am 30.4 32.6 21.8 60 5.8 WSW 13 19 7 10 1013.0 1012.7 0.0
21/09:30am 29.4 31.3 22.1 65 4.9 WSW 15 19 8 10 1012.9 1012.6 0.0
21/09:00am 28.3 30.3 21.6 67 4.5 WSW 13 17 7 9 1012.6 1012.3 0.0
21/08:30am 27.1 31.4 23.6 81 2.4 W 7 9 4 5 1012.3 1012.0 0.0
21/08:00am 25.0 30.2 23.6 92 1.0 N 2 7 1 4 1011.8 1011.5 0.0
21/07:30am 23.2 26.8 22.4 95 0.5 NW 7 9 4 5 1011.3 1011.0 0.0
21/07:00am 22.5 27.0 21.5 94 0.7 CALM 0 0 0 0 1010.8 1010.5 0.0
21/06:30am 23.3 27.0 22.3 94 0.7 ESE 6 7 3 4 1010.4 1010.1 0.0
21/06:00am 23.5 26.9 21.6 89 1.3 SE 6 9 3 5 1010.2 1009.9 0.0
21/05:30am 24.3 28.0 22.6 90 1.1 SSW 7 7 4 4 1010.1 1009.8 0.0
21/05:00am 23.9 27.6 22.2 90 1.1 S 6 9 3 5 1010.0 1009.7 0.0
21/04:30am 23.8 27.6 22.4 92 0.9 ESE 6 7 3 4 1009.7 1009.4 0.0
21/04:00am 23.1 26.6 21.9 93 0.8 ENE 6 7 3 4 1009.4 1009.1 0.0
21/03:30am 23.3 28.1 22.1 93 0.8 CALM 0 0 0 0 1009.3 1009.0 0.0
21/03:00am 23.5 28.3 22.1 92 0.9 CALM 0 0 0 0 1009.4 1009.1 0.0
21/02:30am 23.8 28.1 21.9 89 1.3 SE 2 6 1 3 1009.8 1009.5 0.0
21/02:04am 23.6 26.8 21.7 89 1.3 E 7 9 4 5 1010.0 1009.7 0.0
21/02:00am 23.7 27.2 21.8 89 1.3 ESE 6 7 3 4 1010.0 1009.7 0.0
21/01:46am 23.9 27.9 22.0 89 1.3 NW 4 6 2 3 1010.1 1009.8 0.0
21/01:33am 23.7 27.0 21.4 87 1.5 NW 6 6 3 3 1010.1 1009.8 0.0
21/01:30am 23.9 27.7 21.6 87 1.5 NW 4 6 2 3 1010.1 1009.8 0.0
21/01:06am 24.2 27.5 21.5 85 1.8 NNW 6 7 3 4 1010.2 1009.9 0.0
21/01:00am 24.1 27.4 21.4 85 1.8 N 6 9 3 5 1010.3 1010.0 0.0
21/12:51am 24.4 27.1 21.3 83 2.0 NNE 9 11 5 6 1010.4 1010.1 0.0
21/12:34am 25.0 27.9 21.1 79 2.6 NNE 7 9 4 5 1010.6 1010.3 0.0
21/12:30am 25.2 27.6 20.9 77 2.8 N 9 13 5 7 1010.5 1010.2 0.0
21/12:27am 25.1 27.6 21.0 78 2.7 N 9 13 5 7 1010.5 1010.2 0.0
21/12:00am 24.1 28.1 22.0 88 1.4 E 4 17 2 9 1010.8 1010.5 0.0
 
Date/Time
CST
Temp
°C
App
Temp
°C
Dew
Point
°C
Rel
Hum
%
Delta-T
°C
Wind Press
QNH
hPa
Press
MSL
hPa
Rain since
9am
mm
Dir  Spd
km/h
Gust
km/h
Spd
kts
Gust
kts
20/11:58pm 24.8 30.0 22.9 89 1.3 CALM 0 9 0 5 1010.7 1010.4 0.0
20/11:30pm 24.8 29.3 22.9 89 1.3 E 4 9 2 5 1010.6 1010.3 0.0
20/11:00pm 24.7 28.9 22.4 87 1.5 NNW 4 13 2 7 1010.6 1010.3 0.0
20/10:30pm 26.2 31.6 23.3 84 2.0 CALM 0 0 0 0 1010.5 1010.2 0.0
20/10:00pm 26.2 30.8 23.1 83 2.1 WNW 4 9 2 5 1010.3 1010.0 0.0
20/09:31pm 26.9 32.5 23.6 82 2.3 CALM 0 0 0 0 1010.1 1009.8 0.0
20/09:30pm 26.9 32.3 23.2 80 2.5 CALM 0 0 0 0 1010.0 1009.7 0.0
20/09:12pm 26.7 30.8 23.0 80 2.5 SW 6 7 3 4 1009.8 1009.5 0.0
20/09:00pm 26.7 31.3 22.5 78 2.8 SSE 2 7 1 4 1009.7 1009.4 0.0
20/08:30pm 27.8 33.2 23.2 76 3.2 CALM 0 7 0 4 1009.2 1008.9 0.0
20/08:00pm 29.6 32.1 20.2 57 6.2 E 7 9 4 5 1008.6 1008.3 0.0
20/07:30pm 30.0 33.1 21.4 60 5.8 ENE 7 9 4 5 1008.2 1007.9 0.0
20/07:00pm 32.2 34.1 19.8 48 8.2 E 9 9 5 5 1007.7 1007.4 0.0
20/06:30pm 33.6 34.9 18.5 40 9.9 ESE 9 11 5 6 1007.2 1006.9 0.0
20/06:00pm 34.4 35.0 16.7 34 11.3 ESE 9 15 5 8 1006.8 1006.5 0.0
20/05:30pm 34.7 34.6 16.1 33 11.8 SE 11 19 6 10 1006.9 1006.6 0.0
20/05:00pm 34.9 35.1 16.7 34 11.6 SE 11 15 6 8 1006.9 1006.6 0.0
20/04:30pm 34.7 34.5 15.6 32 12.0 SE 11 19 6 10 1006.9 1006.6 0.0
20/04:00pm 34.7 35.0 17.9 37 10.9 E 13 19 7 10 1007.1 1006.8 0.0
20/03:30pm 35.1 35.5 17.3 34 11.5 ESE 11 15 6 8 1007.3 1007.0 0.0
20/03:00pm 35.1 35.5 18.2 36 11.0 SSE 13 20 7 11 1007.4 1007.1 0.0
20/02:30pm 34.6 35.0 16.4 33 11.6 E 9 17 5 9 1007.8 1007.5 0.0
20/02:00pm 34.3 34.4 17.5 36 10.8 ENE 13 22 7 12 1008.0 1007.7 0.0
20/01:30pm 34.4 34.6 17.6 37 10.9 E 13 19 7 10 1008.4 1008.1 0.0
20/01:00pm 34.2 33.7 19.1 41 9.9 E 20 30 11 16 1008.8 1008.5 0.0
20/12:30pm 33.8 34.6 19.8 43 9.3 E 15 24 8 13 1009.3 1009.0 0.0
20/12:00pm 33.7 34.8 19.7 43 9.3 ESE 13 19 7 10 1009.6 1009.3 0.0
20/11:30am 33.3 34.0 19.7 44 9.0 E 15 20 8 11 1010.0 1009.7 0.0
20/11:00am 32.9 36.9 21.4 50 7.8 NE 2 17 1 9 1010.3 1010.0 0.0
20/10:30am 32.6 37.2 22.4 55 7.0 E 2 13 1 7 1010.5 1010.2 0.0
20/10:00am 31.7 36.9 23.5 62 5.7 E 2 13 1 7 1010.7 1010.4 0.0
20/09:30am 31.1 38.0 25.7 73 3.8 CALM 0 0 0 0 1010.7 1010.4 0.0
20/09:00am 30.5 36.9 24.9 72 3.9 CALM 0 0 0 0 1010.5 1010.2 0.0
20/08:30am 28.5 34.8 24.7 80 2.7 CALM 0 0 0 0 1010.3 1010.0 0.0
20/08:00am 27.1 33.1 24.2 84 2.0 CALM 0 0 0 0 1010.0 1009.7 0.0
20/07:30am 25.8 31.5 23.8 89 1.4 CALM 0 0 0 0 1009.5 1009.2 0.0
20/07:00am 25.8 31.1 23.1 85 1.8 CALM 0 0 0 0 1009.1 1008.8 0.0
20/06:30am 26.0 31.1 22.7 82 2.2 CALM 0 0 0 0 1008.6 1008.3 0.0
20/06:00am 25.9 31.1 22.8 83 2.1 CALM 0 0 0 0 1008.4 1008.1 0.0
20/05:30am 26.5 32.1 23.6 84 2.0 CALM 0 0 0 0 1008.1 1007.8 0.0
20/05:00am 26.5 33.0 25.1 92 1.0 CALM 0 0 0 0 1007.6 1007.3 0.0
20/04:30am 25.9 32.4 25.0 95 0.6 CALM 0 0 0 0 1007.4 1007.1 0.0
20/04:00am 26.1 32.6 25.1 94 0.7 CALM 0 0 0 0 1007.2 1006.9 0.0
20/03:30am 26.2 32.7 25.0 93 0.8 CALM 0 0 0 0 1007.0 1006.7 0.0
20/03:00am 26.8 33.1 24.8 89 1.4 CALM 0 0 0 0 1007.2 1006.9 0.0
20/02:30am 26.7 32.7 24.9 90 1.3 E 2 6 1 3 1007.7 1007.4 0.0
20/02:00am 27.0 33.6 25.2 90 1.3 CALM 0 0 0 0 1008.2 1007.9 0.0
20/01:46am 26.9 33.3 24.9 89 1.4 CALM 0 0 0 0 1008.3 1008.0 0.0
20/01:30am 27.1 33.4 25.3 90 1.3 NW 2 6 1 3 1008.5 1008.2 0.0
20/01:29am 27.0 32.8 25.2 90 1.3 NNW 4 7 2 4 1008.5 1008.2 0.0
20/01:00am 27.4 32.0 24.8 86 1.8 N 9 13 5 7 1008.5 1008.2 0.0
20/12:30am 28.1 32.3 25.3 85 2.0 NNE 13 17 7 9 1008.8 1008.5 0.0
20/12:00am 28.2 33.3 25.6 86 1.8 NNE 9 15 5 8 1009.2 1008.9 0.0
 
Date/Time
CST
Temp
°C
App
Temp
°C
Dew
Point
°C
Rel
Hum
%
Delta-T
°C
Wind Press
QNH
hPa
Press
MSL
hPa
Rain since
9am
mm
Dir  Spd
km/h
Gust
km/h
Spd
kts
Gust
kts
19/11:30pm 28.5 34.5 26.1 87 1.7 NNE 6 7 3 4 1009.3 1009.0 0.0
19/11:00pm 28.7 34.6 25.9 85 2.0 NE 6 6 3 3 1009.1 1008.8 0.0
19/10:30pm 28.5 34.7 26.3 88 1.6 NNE 6 9 3 5 1008.7 1008.4 0.0
19/10:00pm 29.3 36.7 26.5 85 2.0 CALM 0 0 0 0 1008.6 1008.3 0.0
19/09:30pm 29.4 36.6 26.2 83 2.3 CALM 0 0 0 0 1008.2 1007.9 0.0
19/09:00pm 29.3 35.7 26.1 83 2.3 NW 4 6 2 3 1007.8 1007.5 0.0
19/08:30pm 29.5 35.7 26.7 85 2.0 NNW 7 11 4 6 1007.7 1007.4 0.0
19/08:00pm 30.0 35.9 26.2 80 2.7 N 7 9 4 5 1007.3 1007.0 0.0
19/07:30pm 30.7 36.0 25.8 75 3.5 N 9 11 5 6 1006.8 1006.5 0.0
19/07:00pm 32.0 36.8 25.1 67 4.9 NNW 9 11 5 6 1006.5 1006.2 0.0
19/06:30pm 33.3 37.6 24.2 59 6.4 N 9 13 5 7 1006.2 1005.9 0.0
19/06:00pm 33.8 38.2 24.4 58 6.6 NNW 9 13 5 7 1006.0 1005.7 0.0
19/05:30pm 34.0 38.4 23.4 54 7.4 N 6 9 3 5 1005.9 1005.6 0.0
19/05:00pm 34.7 38.5 22.7 49 8.3 WSW 7 13 4 7 1005.8 1005.5 0.0
19/04:30pm 34.3 38.1 22.7 50 8.0 SSE 7 13 4 7 1006.1 1005.8 0.0
19/04:00pm 33.9 36.7 22.3 50 8.0 SSE 11 17 6 9 1006.2 1005.9 0.0
19/03:30pm 33.9 37.5 23.0 53 7.6 S 9 13 5 7 1006.5 1006.2 0.0
19/03:00pm 33.5 36.8 22.6 53 7.5 SSW 9 13 5 7 1006.9 1006.6 0.0

Other Formats:

Comma delimited format used in spreadsheet applications
http://www.bom.gov.au/fwo/IDD60801/IDD60801.94216.axf

JavaScript Object Notation format (JSON) in row-major order
http://www.bom.gov.au/fwo/IDD60801/IDD60801.94216.json